< < Back
Terminal Aerodrome Forecast


Current Version              Previous Versions:   1  2  3  4  5  6  7  8  9  

Terminal Aerodrome Forecast

313
FTAK31 PAJN 141900 AAA
TAFAHN
TAF AMD
PAHN 141953Z 1420/1518 11007KT P6SM FEW006 SCT015 SCT060
     FM150100 10008KT P6SM FEW010 SCT035 BKN070
     FM150800 09004KT P6SM SCT008 BKN015 OVC040
      AMD LTD TO CLD VIS AND WIND=

Latest METAR

747
SAUS70 KWBC 150200 RRA
MTRAHN
METAR KAHN 150151Z AUTO 00000KT 8SM OVC012 19/17 A3023 RMK AO2 SLP232
T01890172


USA.gov is the U.S. government's official web portal to all federal, state and local government web resources and services.